createdAt,value
2023-03-02T00:02:40.802Z,90.91
2023-03-02T00:13:02.700Z,90.16
2023-03-02T00:23:24.130Z,90.99
2023-03-02T00:33:45.498Z,91.50
2023-03-02T00:44:07.088Z,91.50
2023-03-02T00:54:28.445Z,91.77
2023-03-02T01:04:49.898Z,91.23
2023-03-02T01:15:11.403Z,91.81
2023-03-02T01:25:32.743Z,91.30
2023-03-02T01:35:54.225Z,91.21
2023-03-02T01:46:23.530Z,91.56
2023-03-02T01:56:46.073Z,91.98
2023-03-02T02:07:08.524Z,92.50
2023-03-02T02:17:30.127Z,92.94
2023-03-02T02:27:51.717Z,93.14
2023-03-02T02:38:14.030Z,92.76
2023-03-02T02:48:35.485Z,92.32
2023-03-02T02:59:00.627Z,92.38
2023-03-02T03:09:22.488Z,91.24
2023-03-02T03:19:45.558Z,91.98
2023-03-02T03:30:07.191Z,91.82
2023-03-02T03:40:29.029Z,91.38
2023-03-02T03:50:50.458Z,92.13
2023-03-02T04:01:11.848Z,92.24
2023-03-02T04:11:34.138Z,92.26
2023-03-02T04:21:55.943Z,92.61
2023-03-02T04:32:17.385Z,91.35
2023-03-02T04:42:38.763Z,90.74
2023-03-02T04:53:00.339Z,91.66
2023-03-02T05:03:21.689Z,91.67
2023-03-02T05:13:43.100Z,91.12
2023-03-02T05:24:04.623Z,92.37
2023-03-02T05:34:25.993Z,91.03
2023-03-02T05:44:47.339Z,91.05
2023-03-02T05:55:08.816Z,90.23
2023-03-02T06:05:30.162Z,91.40
2023-03-02T06:15:51.513Z,91.85
2023-03-02T06:26:13.116Z,91.88
2023-03-02T06:36:35.033Z,91.43
2023-03-02T06:46:56.626Z,91.62
2023-03-02T06:57:17.979Z,92.04
2023-03-02T07:07:39.415Z,90.87
2023-03-02T07:18:00.822Z,90.56
2023-03-02T07:28:24.152Z,91.10
2023-03-02T07:38:45.526Z,91.78
2023-03-02T07:49:06.901Z,92.04
2023-03-02T07:59:28.950Z,90.54
2023-03-02T08:09:50.489Z,91.80
2023-03-02T08:20:12.286Z,91.41
2023-03-02T08:30:33.732Z,91.43
2023-03-02T08:40:55.122Z,91.25
2023-03-02T08:51:18.023Z,90.90
2023-03-02T09:01:39.728Z,90.40
2023-03-02T09:12:01.310Z,90.79
2023-03-02T09:22:22.665Z,90.92
2023-03-02T09:32:44.260Z,91.51
2023-03-02T09:43:24.593Z,90.18
2023-03-02T09:53:45.996Z,90.95
2023-03-02T10:04:27.631Z,90.70
2023-03-02T10:14:53.160Z,90.85
2023-03-02T10:25:20.653Z,90.18
2023-03-02T10:35:47.175Z,88.66
2023-03-02T10:46:10.201Z,88.81
2023-03-02T10:56:32.682Z,88.71
2023-03-02T11:06:54.541Z,89.07
2023-03-02T11:17:30.424Z,88.72
2023-03-02T11:27:56.774Z,88.36
2023-03-02T11:38:21.321Z,87.67
2023-03-02T11:48:44.915Z,87.93
2023-03-02T11:59:11.342Z,88.75
2023-03-02T12:09:35.082Z,87.41
2023-03-02T12:20:08.563Z,87.90
2023-03-02T12:30:31.526Z,87.82
2023-03-02T12:41:12.840Z,87.04
2023-03-02T12:51:53.905Z,87.42
2023-03-02T13:02:15.397Z,86.55
2023-03-02T13:12:37.161Z,86.36
2023-03-02T13:22:58.566Z,85.47
2023-03-02T13:33:22.389Z,84.60
2023-03-02T13:43:43.821Z,85.62
2023-03-02T13:54:11.247Z,85.22
2023-03-02T14:04:32.725Z,85.47
2023-03-02T14:14:55.886Z,85.03
2023-03-02T14:25:17.731Z,84.72
2023-03-02T14:35:39.148Z,84.09
2023-03-02T14:46:00.593Z,83.87
2023-03-02T14:56:25.811Z,84.38
2023-03-02T15:06:47.457Z,85.55
2023-03-02T15:17:10.121Z,84.49
2023-03-02T15:27:31.486Z,84.28
2023-03-02T15:37:53.266Z,86.16
2023-03-02T15:48:14.735Z,85.88
2023-03-02T15:58:36.443Z,85.50
2023-03-02T16:08:57.971Z,85.37
2023-03-02T16:19:19.539Z,86.63
2023-03-02T16:29:40.959Z,86.23
2023-03-02T16:40:02.330Z,86.47
2023-03-02T16:50:23.676Z,86.44
2023-03-02T17:00:45.133Z,86.59
2023-03-02T17:11:06.678Z,86.12
2023-03-02T17:21:28.096Z,86.76
2023-03-02T17:31:49.451Z,86.51
2023-03-02T17:42:10.863Z,87.43
2023-03-02T17:52:32.367Z,87.30
2023-03-02T18:02:53.854Z,87.22
2023-03-02T18:13:15.341Z,87.20
2023-03-02T18:23:36.708Z,87.37
2023-03-02T18:33:58.939Z,88.39
2023-03-02T18:44:20.752Z,87.45
2023-03-02T18:54:46.355Z,86.96
2023-03-02T19:05:07.913Z,87.29
2023-03-02T19:15:31.421Z,87.52
2023-03-02T19:25:53.244Z,87.27
2023-03-02T19:36:14.713Z,86.89
2023-03-02T19:46:36.072Z,86.76
2023-03-02T19:56:57.450Z,86.56
2023-03-02T20:07:19.397Z,86.29
2023-03-02T20:17:40.780Z,86.27
2023-03-02T20:28:05.499Z,87.23
2023-03-02T20:38:30.399Z,86.68
2023-03-02T20:48:51.909Z,87.43
2023-03-02T20:59:14.363Z,87.55
2023-03-02T21:09:36.566Z,88.07
2023-03-02T21:19:58.219Z,87.96
2023-03-02T21:30:27.929Z,88.25
2023-03-02T21:40:49.266Z,88.23
2023-03-02T21:51:11.373Z,88.13
2023-03-02T22:01:32.921Z,88.11
2023-03-02T22:11:54.543Z,88.26
2023-03-02T22:22:18.149Z,88.81
2023-03-02T22:32:39.611Z,88.92
2023-03-02T22:43:20.328Z,88.96
2023-03-02T22:53:48.718Z,88.92
2023-03-02T23:04:11.888Z,89.20
2023-03-02T23:14:41.720Z,88.97
2023-03-02T23:25:03.614Z,89.52
2023-03-02T23:35:25.041Z,89.69
2023-03-02T23:45:47.184Z,89.82
2023-03-02T23:56:08.742Z,89.71
